»·PEaware :: N165YP KYKM-KPDX

N165YP :: KYKM-KPDX

FLIGHT INFORMATION

Flight Status: Arrived
Operator: Privately registered:
United States
More flights under this callsign
Pilot: Allen F. (27411)
Aircraft: BEECH AIRCRAFT BARON
(BE58)
More flights by this aircraft type
Origin: KYKM Yakima Air Term/Mcallister
United States
Destination: KPDX Portland Intl
United States
More flights between these airports :: More routes between these airports
Route: YKM V25 LTJ V112 BTG
File this flight plan on PilotEdge
Remarks: I'm out of town using MacBook with no quick views and no rudder , I'll have somewhat limited capability. Thank you
Altitude:
(Current/Filed)
8,000ft
Speed:
(Current/Filed)
175kts
Departed: 12-Nov-20 11:53 AM
Arrived: 12-Nov-20 12:51 PM
Distance/Time
Traveled:
103nm/0:58
Distance/Time
To Go:
Arrived

Flight Plot

Page will automatically refresh every two minutes.

Flight plan parsing failed; only flown route is shown


Map Options




Map Legend


Flown Route
Filed Route
Departure Airport
Arrival Airport
Navaid (VOR, NDB)
Fix

Horizontal Profiles

Position Reports

Time Latitude Longitude Heading Altitude Ground
Speed
12-Nov-20 11:41 46.571342 -120.547987 91 1076ft 0kts
12-Nov-20 11:42 46.571342 -120.547987 91 1076ft 0kts
12-Nov-20 11:43 46.571342 -120.547987 91 1076ft 0kts
12-Nov-20 11:44 46.571342 -120.547987 91 1076ft 0kts
12-Nov-20 11:45 46.571321 -120.547897 124 1076ft 6kts
12-Nov-20 11:46 46.568783 -120.539870 110 1063ft 31kts
12-Nov-20 11:47 46.566753 -120.531865 137 1048ft 0kts
12-Nov-20 11:48 46.566753 -120.531865 137 1048ft 0kts
12-Nov-20 11:49 46.566753 -120.531865 137 1048ft 0kts
12-Nov-20 11:50 46.566596 -120.531587 149 1047ft 9kts
12-Nov-20 11:51 46.566488 -120.531540 166 1047ft 4kts
12-Nov-20 11:52 46.571532 -120.555270 290 1258ft 132kts
12-Nov-20 11:53 46.596822 -120.588279 331 3068ft 123kts
12-Nov-20 11:54 46.626576 -120.609683 331 4695ft 123kts
12-Nov-20 11:55 46.657444 -120.632681 336 6208ft 120kts
12-Nov-20 11:56 46.687634 -120.620509 90 7182ft 134kts
12-Nov-20 11:57 46.657259 -120.593476 160 7896ft 161kts
12-Nov-20 11:58 46.614491 -120.573031 185 8610ft 157kts
12-Nov-20 12:00 46.565460 -120.566747 154 8124ft 197kts
12-Nov-20 12:01 46.512495 -120.558462 196 8115ft 178kts
12-Nov-20 12:02 46.465077 -120.592461 216 8042ft 182kts
12-Nov-20 12:03 46.423779 -120.641820 206 7963ft 182kts
12-Nov-20 12:04 46.374623 -120.672267 202 8177ft 167kts
12-Nov-20 12:05 46.327382 -120.706820 209 8146ft 176kts
12-Nov-20 12:06 46.280080 -120.742450 204 8207ft 177kts
12-Nov-20 12:07 46.231309 -120.774365 204 7829ft 192kts
12-Nov-20 12:08 46.190363 -120.799190 204 9273ft 128kts
12-Nov-20 12:09 46.142133 -120.828299 203 7961ft 203kts
12-Nov-20 12:10 46.093302 -120.864299 209 7882ft 161kts
12-Nov-20 12:11 46.049771 -120.894425 206 8084ft 161kts
12-Nov-20 12:12 46.002347 -120.924968 203 8092ft 166kts
12-Nov-20 12:13 45.954518 -120.954131 204 8165ft 174kts
12-Nov-20 12:14 45.906651 -120.990989 204 8062ft 174kts
12-Nov-20 12:15 45.857236 -121.017362 199 7960ft 187kts
12-Nov-20 12:16 45.807431 -121.048849 205 7833ft 188kts
12-Nov-20 12:17 45.759493 -121.083631 206 7952ft 180kts
12-Nov-20 12:17 45.721612 -121.113548 240 8433ft 154kts
12-Nov-20 12:19 45.702863 -121.201192 260 7907ft 187kts
12-Nov-20 12:19 45.700799 -121.266197 264 7998ft 178kts
12-Nov-20 12:21 45.693945 -121.357108 253 8095ft 175kts
12-Nov-20 12:21 45.680075 -121.420411 254 8055ft 180kts
12-Nov-20 12:22 45.664704 -121.498262 254 8044ft 183kts
12-Nov-20 12:23 45.649925 -121.576570 262 8031ft 184kts
12-Nov-20 12:24 45.648724 -121.656587 274 8039ft 184kts
12-Nov-20 12:25 45.655068 -121.736330 280 8044ft 184kts
12-Nov-20 12:26 45.660180 -121.815306 255 8050ft 181kts
12-Nov-20 12:27 45.660391 -121.894478 271 8054ft 183kts
12-Nov-20 12:28 45.662323 -121.974892 271 8035ft 184kts
12-Nov-20 12:29 45.664259 -122.054959 272 8040ft 184kts
12-Nov-20 12:30 45.666230 -122.135832 272 8041ft 184kts
12-Nov-20 12:31 45.674254 -122.215684 279 8040ft 184kts
12-Nov-20 12:32 45.683051 -122.294401 278 8308ft 170kts
12-Nov-20 12:33 45.692134 -122.375021 282 7802ft 199kts
12-Nov-20 12:34 45.710553 -122.457118 288 7346ft 197kts
12-Nov-20 12:35 45.729181 -122.543153 285 6353ft 206kts
12-Nov-20 12:36 45.760166 -122.614204 338 5589ft 195kts
12-Nov-20 12:37 45.815802 -122.639688 346 4934ft 183kts
12-Nov-20 12:38 45.864889 -122.664954 285 5000ft 168kts
12-Nov-20 12:39 45.886493 -122.663031 122 5121ft 172kts
12-Nov-20 12:40 45.831415 -122.636762 140 4174ft 184kts
12-Nov-20 12:41 45.784446 -122.602016 166 4260ft 177kts
12-Nov-20 12:42 45.735490 -122.597185 203 1889ft 133kts
12-Nov-20 12:43 45.709100 -122.618869 201 1789ft 76kts
12-Nov-20 12:44 45.682361 -122.641257 230 1489ft 106kts
12-Nov-20 12:45 45.682310 -122.677141 314 1317ft 103kts
12-Nov-20 12:46 45.672250 -122.703352 165 627ft 99kts
12-Nov-20 12:47 45.642693 -122.683807 174 1072ft 121kts
12-Nov-20 12:48 45.613514 -122.655097 104 778ft 117kts
12-Nov-20 12:49 45.599835 -122.608907 116 233ft 112kts
12-Nov-20 12:50 45.591295 -122.589656 282 20ft 0kts
12-Nov-20 12:51 45.590632 -122.588393 107 20ft 13kts
12-Nov-20 12:52 45.586576 -122.577755 118 20ft 29kts

Navigation Log

Ident Type
Flight plan parsing failed, navigation log unavailable